Time;durP1;ratioP1;P1;durP2;ratioP2;P2;SDS_P1;SDS_P2;PMS_P1;PMS_P2;Temp;Humidity;BMP_temperature;BMP_pressure;BME280_temperature;BME280_humidity;BME280_pressure;Samples;Min_cycle;Max_cycle;Signal;HPM_P1;HPM_P2
2021/08/18 00:05:37;;;;;;;;;4.50;2.00;;;;;;;;5545746;23;9035;-88
2021/08/18 00:08:06;;;;;;;;;10.25;5.25;;;;;;;;4991070;28;8907;-89
2021/08/18 00:10:33;;;;;;;;;7.50;5.75;;;;;;;;4991634;28;8894;-89
2021/08/18 00:13:01;;;;;;;;;6.50;4.50;;;;;;;;4990698;28;8906;-89
2021/08/18 00:15:28;;;;;;;;;7.00;5.75;;;;;;;;4989239;28;8928;-88
2021/08/18 00:18:00;;;;;;;;;6.00;6.00;;;;;;;;4989021;28;8866;-88
2021/08/18 00:20:28;;;;;;;;;9.25;7.75;;;;;;;;4987825;28;8927;-89
2021/08/18 00:22:57;;;;;;;;;6.50;6.50;;;;;;;;4989159;28;9639;-88
2021/08/18 00:25:26;;;;;;;;;7.75;7.75;;;;;;;;4987654;28;8869;-89
2021/08/18 00:27:53;;;;;;;;;8.25;8.25;;;;;;;;4989127;28;8873;-87
2021/08/18 00:30:20;;;;;;;;;8.25;7.00;;;;;;;;4969796;28;8905;-88
2021/08/18 00:32:48;;;;;;;;;7.75;7.50;;;;;;;;4988743;28;8915;-89
2021/08/18 00:35:15;;;;;;;;;8.00;8.00;;;;;;;;4988553;28;8861;-88
2021/08/18 00:37:46;;;;;;;;;6.00;6.00;;;;;;;;4986947;28;8877;-88
2021/08/18 00:40:16;;;;;;;;;11.75;9.00;;;;;;;;4975186;28;9434;-88
2021/08/18 00:42:44;;;;;;;;;10.00;7.50;;;;;;;;4985943;28;9036;-88
2021/08/18 00:45:13;;;;;;;;;12.00;10.00;;;;;;;;4987606;28;9013;-87
2021/08/18 00:47:45;;;;;;;;;11.00;9.50;;;;;;;;4968731;28;9486;-88
2021/08/18 01:50:16;;;;;;;;;13.50;13.50;;;;;;;;4982917;28;8906;-88
2021/08/18 01:52:44;;;;;;;;;12.50;10.75;;;;;;;;4967698;28;8916;-85
2021/08/18 01:55:12;;;;;;;;;14.75;14.75;;;;;;;;4967184;28;8948;-87
2021/08/18 01:57:41;;;;;;;;;12.25;11.75;;;;;;;;4948752;28;8915;-87
2021/08/18 02:00:10;;;;;;;;;14.75;13.00;;;;;;;;4950170;28;8886;-89
2021/08/18 02:02:38;;;;;;;;;20.25;16.50;;;;;;;;4948897;28;8890;-86
2021/08/18 02:05:06;;;;;;;;;15.25;14.00;;;;;;;;4967114;28;8917;-88
2021/08/18 02:07:35;;;;;;;;;13.00;13.00;;;;;;;;4966383;28;8891;-88
2021/08/18 02:10:03;;;;;;;;;12.50;12.50;;;;;;;;4965003;28;9745;-88
2021/08/18 02:22:44;;;;;;;;;16.75;13.50;;;;;;;;4956994;28;9010;-88
2021/08/18 02:25:12;;;;;;;;;12.75;12.25;;;;;;;;4934523;28;8867;-89
2021/08/18 02:27:39;;;;;;;;;11.25;11.25;;;;;;;;4966037;28;8886;-90
2021/08/18 02:30:08;;;;;;;;;13.25;11.25;;;;;;;;4966709;28;8903;-90
2021/08/18 02:32:36;;;;;;;;;15.50;14.00;;;;;;;;4948692;28;8878;-90
2021/08/18 02:35:04;;;;;;;;;13.25;11.75;;;;;;;;4949987;28;8972;-89
2021/08/18 02:37:31;;;;;;;;;11.50;10.00;;;;;;;;4970385;28;8886;-89
2021/08/18 02:40:00;;;;;;;;;10.25;10.25;;;;;;;;4964742;28;8878;-90
2021/08/18 02:42:28;;;;;;;;;14.00;11.25;;;;;;;;4966604;28;8886;-89
2021/08/18 02:44:55;;;;;;;;;13.25;13.25;;;;;;;;4948335;28;9479;-89
2021/08/18 02:47:23;;;;;;;;;10.50;10.50;;;;;;;;4966118;28;8891;-90
2021/08/18 03:22:09;;;;;;;;;10.75;9.00;;;;;;;;4888550;29;8813;-90
2021/08/18 03:24:37;;;;;;;;;12.50;12.50;;;;;;;;4976187;28;8889;-89
2021/08/18 03:27:05;;;;;;;;;15.00;15.00;;;;;;;;4967065;28;8886;-89
2021/08/18 03:29:32;;;;;;;;;10.75;10.00;;;;;;;;4978496;28;8898;-90
2021/08/18 03:31:59;;;;;;;;;7.75;6.50;;;;;;;;4952863;28;8841;-90
2021/08/18 03:34:26;;;;;;;;;7.00;7.00;;;;;;;;4961898;28;8923;-89
2021/08/18 03:36:54;;;;;;;;;9.25;9.25;;;;;;;;4947173;28;8865;-89
2021/08/18 03:39:22;;;;;;;;;9.00;8.50;;;;;;;;4960133;28;8880;-88
2021/08/18 03:41:50;;;;;;;;;7.50;7.50;;;;;;;;4964948;28;8869;-89
2021/08/18 03:44:17;;;;;;;;;6.50;6.50;;;;;;;;4966623;28;8919;-89
2021/08/18 03:46:44;;;;;;;;;6.00;6.00;;;;;;;;4964937;28;8853;-88
2021/08/18 03:49:12;;;;;;;;;9.00;7.00;;;;;;;;4967637;28;8891;-88
2021/08/18 03:51:39;;;;;;;;;7.50;6.25;;;;;;;;4981170;28;8856;-87
2021/08/18 03:54:07;;;;;;;;;11.00;7.50;;;;;;;;4968333;28;8963;-87
2021/08/18 03:56:35;;;;;;;;;12.25;7.50;;;;;;;;4968724;28;9018;-88
2021/08/18 03:59:03;;;;;;;;;6.50;6.50;;;;;;;;4968353;28;8942;-89
2021/08/18 04:01:31;;;;;;;;;7.75;6.00;;;;;;;;4936215;28;8834;-90
2021/08/18 04:03:58;;;;;;;;;7.00;7.00;;;;;;;;4968188;28;8985;-87
2021/08/18 04:06:25;;;;;;;;;5.25;5.00;;;;;;;;4969382;28;8891;-89
2021/08/18 04:08:53;;;;;;;;;7.25;5.75;;;;;;;;4981135;28;8917;-89
2021/08/18 04:11:20;;;;;;;;;7.75;7.25;;;;;;;;4969050;28;8888;-87
2021/08/18 04:13:48;;;;;;;;;8.00;7.00;;;;;;;;4972320;28;8889;-88
2021/08/18 04:16:16;;;;;;;;;6.75;6.75;;;;;;;;4976959;28;8873;-89
2021/08/18 04:18:45;;;;;;;;;10.50;6.75;;;;;;;;4968527;28;8986;-86
2021/08/18 04:21:13;;;;;;;;;5.50;5.50;;;;;;;;4950194;28;9160;-89
2021/08/18 04:23:40;;;;;;;;;7.00;7.00;;;;;;;;4982768;28;8869;-88
2021/08/18 04:26:07;;;;;;;;;7.50;7.50;;;;;;;;4968307;28;8902;-89
2021/08/18 04:28:34;;;;;;;;;8.00;8.00;;;;;;;;4969488;28;8877;-88
2021/08/18 04:31:03;;;;;;;;;8.75;7.50;;;;;;;;4935257;28;8825;-90
2021/08/18 04:33:31;;;;;;;;;5.50;5.25;;;;;;;;4968262;28;8993;-89
2021/08/18 04:35:58;;;;;;;;;8.50;8.50;;;;;;;;4969613;28;8896;-89
2021/08/18 04:38:26;;;;;;;;;10.00;7.25;;;;;;;;4950721;28;8857;-89
2021/08/18 04:40:53;;;;;;;;;4.50;4.25;;;;;;;;4951806;28;8895;-89
2021/08/18 04:43:21;;;;;;;;;6.25;6.25;;;;;;;;4967489;28;8911;-89
2021/08/18 04:52:39;;;;;;;;;8.50;8.50;;;;;;;;4992559;28;8955;-88
2021/08/18 04:55:07;;;;;;;;;6.75;6.75;;;;;;;;4970002;28;8943;-88
2021/08/18 04:57:35;;;;;;;;;7.25;7.00;;;;;;;;4970937;28;8877;-88
2021/08/18 05:00:02;;;;;;;;;7.25;5.00;;;;;;;;4987282;28;8881;-88
2021/08/18 05:02:30;;;;;;;;;4.25;4.25;;;;;;;;4986928;28;8845;-88
2021/08/18 05:04:57;;;;;;;;;7.25;6.00;;;;;;;;4987186;28;8893;-89
2021/08/18 05:07:24;;;;;;;;;3.00;3.00;;;;;;;;4987758;28;8891;-86
2021/08/18 05:09:53;;;;;;;;;6.25;6.25;;;;;;;;4986516;28;8869;-88
2021/08/18 05:12:20;;;;;;;;;5.50;5.50;;;;;;;;4987722;28;8987;-88
2021/08/18 05:14:49;;;;;;;;;6.00;5.75;;;;;;;;4987652;28;8831;-88
2021/08/18 05:17:16;;;;;;;;;7.00;6.00;;;;;;;;4986700;28;8983;-87
2021/08/18 05:19:44;;;;;;;;;7.00;5.75;;;;;;;;4987454;28;8895;-87
2021/08/18 05:22:11;;;;;;;;;5.25;5.25;;;;;;;;5001220;28;8991;-87
2021/08/18 05:24:39;;;;;;;;;7.00;5.00;;;;;;;;5002480;28;8888;-85
2021/08/18 05:27:08;;;;;;;;;9.50;5.00;;;;;;;;4973042;28;8909;-89
2021/08/18 05:29:35;;;;;;;;;6.50;5.25;;;;;;;;4987604;28;9021;-87
2021/08/18 05:32:02;;;;;;;;;3.25;3.00;;;;;;;;4986505;28;8837;-88
2021/08/18 05:34:30;;;;;;;;;5.25;4.25;;;;;;;;4986798;28;8877;-86
2021/08/18 05:36:57;;;;;;;;;3.00;3.00;;;;;;;;4987589;28;8849;-86
2021/08/18 05:39:27;;;;;;;;;3.00;3.00;;;;;;;;4985647;28;8869;-86
2021/08/18 05:41:54;;;;;;;;;2.75;2.75;;;;;;;;4986443;28;8890;-86
2021/08/18 05:44:27;;;;;;;;;4.00;2.00;;;;;;;;4967465;28;8907;-88
2021/08/18 05:46:54;;;;;;;;;3.50;3.50;;;;;;;;4986059;28;8876;-88
2021/08/18 05:49:22;;;;;;;;;2.50;2.50;;;;;;;;4984933;28;8893;-87
2021/08/18 05:51:50;;;;;;;;;2.00;2.00;;;;;;;;4985897;28;9650;-87
2021/08/18 05:54:18;;;;;;;;;4.25;3.50;;;;;;;;4969313;28;8880;-88
2021/08/18 05:56:45;;;;;;;;;2.75;2.75;;;;;;;;4986541;28;8877;-87
2021/08/18 05:59:12;;;;;;;;;3.00;3.00;;;;;;;;4987165;28;8857;-88
2021/08/18 06:01:41;;;;;;;;;3.50;3.50;;;;;;;;4985139;28;8926;-89
2021/08/18 06:04:08;;;;;;;;;2.50;2.50;;;;;;;;4987123;28;9011;-88
2021/08/18 06:06:36;;;;;;;;;2.50;2.50;;;;;;;;4985842;28;8919;-88
2021/08/18 06:09:03;;;;;;;;;3.50;2.75;;;;;;;;4986188;28;8968;-87
2021/08/18 06:11:30;;;;;;;;;4.00;4.00;;;;;;;;4985751;28;8857;-86
2021/08/18 06:13:58;;;;;;;;;3.00;3.00;;;;;;;;4986052;28;8857;-86
2021/08/18 06:16:26;;;;;;;;;3.00;3.00;;;;;;;;4986796;28;8875;-88
2021/08/18 06:18:54;;;;;;;;;2.50;2.50;;;;;;;;4984790;28;8864;-88
2021/08/18 06:21:22;;;;;;;;;2.50;2.50;;;;;;;;4986488;28;8915;-89
2021/08/18 06:23:50;;;;;;;;;3.00;3.00;;;;;;;;4985079;28;9032;-88
2021/08/18 06:26:20;;;;;;;;;3.00;2.00;;;;;;;;4986160;28;8912;-88
2021/08/18 06:28:48;;;;;;;;;2.00;2.00;;;;;;;;4985241;28;8881;-88
2021/08/18 06:31:15;;;;;;;;;2.00;2.00;;;;;;;;4985431;28;8797;-89
2021/08/18 06:36:28;;;;;;;;;1.75;1.75;;;;;;;;4970113;28;8996;-89
2021/08/18 06:39:06;;;;;;;;;2.00;2.00;;;;;;;;4986444;28;8946;-85
2021/08/18 06:41:37;;;;;;;;;2.00;2.00;;;;;;;;4984795;28;8954;-87
2021/08/18 06:47:09;;;;;;;;;2.00;2.00;;;;;;;;4955778;28;8968;-87
2021/08/18 06:49:37;;;;;;;;;2.75;2.75;;;;;;;;4999753;28;8917;-88
2021/08/18 06:52:07;;;;;;;;;4.25;2.50;;;;;;;;4985795;28;8899;-87
2021/08/18 06:54:34;;;;;;;;;2.00;2.00;;;;;;;;4967101;28;8880;-87
2021/08/18 06:57:01;;;;;;;;;4.00;4.00;;;;;;;;4986297;28;8927;-87
2021/08/18 06:59:29;;;;;;;;;3.00;3.00;;;;;;;;4984282;28;8881;-86
2021/08/18 07:01:56;;;;;;;;;5.25;3.00;;;;;;;;4985176;28;8936;-88
2021/08/18 07:04:24;;;;;;;;;4.00;2.75;;;;;;;;4984824;28;8903;-87
2021/08/18 07:06:51;;;;;;;;;3.25;3.25;;;;;;;;4967992;28;8963;-86
2021/08/18 07:09:20;;;;;;;;;4.00;4.00;;;;;;;;4985941;28;8992;-86
2021/08/18 07:11:47;;;;;;;;;3.00;3.00;;;;;;;;4983458;28;9663;-86
2021/08/18 07:14:14;;;;;;;;;4.00;2.75;;;;;;;;4985011;28;8880;-87
2021/08/18 07:16:42;;;;;;;;;5.00;5.00;;;;;;;;4983579;28;8997;-87
2021/08/18 07:19:09;;;;;;;;;4.00;4.00;;;;;;;;4985564;28;8875;-88
2021/08/18 07:25:17;;;;;;;;;4.00;4.00;;;;;;;;4919363;28;8853;-87
2021/08/18 07:27:44;;;;;;;;;2.75;2.75;;;;;;;;4989512;28;8931;-87
2021/08/18 07:30:12;;;;;;;;;2.00;2.00;;;;;;;;4987740;28;8885;-81
2021/08/18 07:32:40;;;;;;;;;2.00;2.00;;;;;;;;4989244;28;8846;-79
2021/08/18 07:35:09;;;;;;;;;3.25;3.25;;;;;;;;4970245;28;8868;-80
2021/08/18 07:37:37;;;;;;;;;3.00;3.00;;;;;;;;4970963;28;8895;-81
2021/08/18 07:40:05;;;;;;;;;2.75;2.75;;;;;;;;4993727;28;9581;-82
2021/08/18 07:42:35;;;;;;;;;4.00;4.00;;;;;;;;4993885;28;8987;-79
2021/08/18 07:45:03;;;;;;;;;1.50;1.50;;;;;;;;4988288;28;8899;-77
2021/08/18 07:47:30;;;;;;;;;2.75;2.75;;;;;;;;4987039;28;8905;-81
2021/08/18 07:49:58;;;;;;;;;0.50;0.50;;;;;;;;4988460;28;8952;-79
2021/08/18 07:52:25;;;;;;;;;4.00;3.00;;;;;;;;4990953;28;8963;-79
2021/08/18 07:54:52;;;;;;;;;2.25;2.25;;;;;;;;5001283;28;8860;-79
2021/08/18 07:57:20;;;;;;;;;2.50;2.50;;;;;;;;5004475;28;8951;-78
2021/08/18 07:59:51;;;;;;;;;3.25;3.25;;;;;;;;5003845;28;8856;-79
2021/08/18 08:02:20;;;;;;;;;2.50;2.50;;;;;;;;5002484;28;8801;-80
2021/08/18 08:04:47;;;;;;;;;3.50;3.00;;;;;;;;4979452;28;8935;-80
2021/08/18 08:07:15;;;;;;;;;3.00;3.00;;;;;;;;4990455;28;8860;-78
2021/08/18 08:09:42;;;;;;;;;3.00;3.00;;;;;;;;4991488;28;8885;-80
2021/08/18 08:12:10;;;;;;;;;2.75;2.75;;;;;;;;4988181;28;8921;-79
2021/08/18 08:14:37;;;;;;;;;7.75;4.50;;;;;;;;4987172;28;9639;-78
2021/08/18 08:17:06;;;;;;;;;2.50;2.50;;;;;;;;4990313;28;9659;-81
2021/08/18 08:19:34;;;;;;;;;3.25;3.25;;;;;;;;5000941;28;9299;-79
2021/08/18 08:22:01;;;;;;;;;4.00;2.67;;;;;;;;4999793;28;8943;-79
2021/08/18 08:24:28;;;;;;;;;3.00;3.00;;;;;;;;5002842;28;8864;-79
2021/08/18 08:26:56;;;;;;;;;4.50;3.50;;;;;;;;4999691;28;8853;-81
2021/08/18 08:29:23;;;;;;;;;4.00;3.75;;;;;;;;4985504;28;8868;-79
2021/08/18 08:31:51;;;;;;;;;4.50;4.50;;;;;;;;4996970;28;8817;-80
2021/08/18 08:34:21;;;;;;;;;7.00;5.00;;;;;;;;5002523;28;8938;-77
2021/08/18 08:36:49;;;;;;;;;3.75;3.75;;;;;;;;5002661;28;8996;-78
2021/08/18 08:39:17;;;;;;;;;7.00;4.25;;;;;;;;4997291;28;8872;-80
2021/08/18 08:41:45;;;;;;;;;6.50;5.00;;;;;;;;4976579;28;9661;-79
2021/08/18 08:44:17;;;;;;;;;6.25;4.50;;;;;;;;5003198;28;8841;-77
2021/08/18 08:46:46;;;;;;;;;4.00;4.00;;;;;;;;4996798;28;8907;-78
2021/08/18 08:49:14;;;;;;;;;5.40;4.60;;;;;;;;5002843;28;8841;-79
2021/08/18 08:51:43;;;;;;;;;4.00;4.00;;;;;;;;4997528;28;8890;-79
2021/08/18 08:54:10;;;;;;;;;3.80;3.80;;;;;;;;5001460;28;8855;-78
2021/08/18 08:56:38;;;;;;;;;7.20;4.00;;;;;;;;5000595;28;8869;-78
2021/08/18 08:59:05;;;;;;;;;5.60;5.60;;;;;;;;4998465;28;8856;-78
2021/08/18 09:02:03;;;;;;;;;4.80;4.80;;;;;;;;5001918;28;8935;-80
2021/08/18 09:04:32;;;;;;;;;4.80;4.80;;;;;;;;5001800;28;8861;-78
2021/08/18 09:07:22;;;;;;;;;5.00;5.00;;;;;;;;5002888;28;8856;-77
2021/08/18 09:09:54;;;;;;;;;4.00;4.00;;;;;;;;4999209;28;8880;-78
2021/08/18 09:12:22;;;;;;;;;5.00;5.00;;;;;;;;5000613;28;8887;-79
2021/08/18 09:14:49;;;;;;;;;6.40;4.80;;;;;;;;4994268;28;8860;-79
2021/08/18 09:17:35;;;;;;;;;6.40;6.40;;;;;;;;5000714;28;8860;-78
2021/08/18 09:20:06;;;;;;;;;5.00;5.00;;;;;;;;5002419;28;8994;-79
2021/08/18 09:22:38;;;;;;;;;4.60;4.60;;;;;;;;4978808;28;8970;-78
2021/08/18 09:25:11;;;;;;;;;7.00;5.80;;;;;;;;4990797;28;8885;-78
2021/08/18 09:27:39;;;;;;;;;5.60;5.60;;;;;;;;4992632;28;8983;-79
2021/08/18 09:30:08;;;;;;;;;4.40;4.40;;;;;;;;5001520;28;8868;-78
2021/08/18 09:32:37;;;;;;;;;4.80;4.00;;;;;;;;4998145;28;8903;-81
2021/08/18 09:35:07;;;;;;;;;8.00;7.00;;;;;;;;5000198;28;8861;-78
2021/08/18 09:37:37;;;;;;;;;7.00;7.00;;;;;;;;4992427;28;8869;-79
2021/08/18 09:40:16;;;;;;;;;5.00;4.00;;;;;;;;4984786;28;8877;-79
2021/08/18 09:42:44;;;;;;;;;8.20;5.40;;;;;;;;4984609;28;9054;-79
2021/08/18 09:45:14;;;;;;;;;5.40;5.40;;;;;;;;4984887;28;8893;-78
2021/08/18 09:48:04;;;;;;;;;6.80;6.80;;;;;;;;4985390;28;8874;-79
2021/08/18 09:50:39;;;;;;;;;6.00;6.00;;;;;;;;4968165;28;8955;-81
2021/08/18 09:53:10;;;;;;;;;6.00;6.00;;;;;;;;4984456;28;8893;-80
2021/08/18 09:55:39;;;;;;;;;5.40;5.20;;;;;;;;4985736;28;8905;-79
2021/08/18 09:58:22;;;;;;;;;7.80;7.80;;;;;;;;4984624;28;9761;-79
2021/08/18 10:00:50;;;;;;;;;5.60;5.60;;;;;;;;4985417;28;9583;-80
2021/08/18 10:03:18;;;;;;;;;6.40;5.80;;;;;;;;4985269;28;9017;-81
2021/08/18 10:05:46;;;;;;;;;8.60;6.00;;;;;;;;4985053;28;8877;-80
2021/08/18 10:08:14;;;;;;;;;6.00;6.00;;;;;;;;4968219;28;8885;-80
2021/08/18 10:10:43;;;;;;;;;5.00;5.00;;;;;;;;4966939;28;8922;-81
2021/08/18 10:13:11;;;;;;;;;5.00;5.00;;;;;;;;4985662;28;8869;-80
2021/08/18 10:15:39;;;;;;;;;4.80;3.80;;;;;;;;4983853;28;8859;-80
2021/08/18 10:18:08;;;;;;;;;6.00;6.00;;;;;;;;4985856;28;8885;-81
2021/08/18 10:20:36;;;;;;;;;4.80;4.80;;;;;;;;4984923;28;8869;-79
2021/08/18 10:23:11;;;;;;;;;4.20;4.20;;;;;;;;4988158;28;8901;-79
2021/08/18 10:25:47;;;;;;;;;4.80;4.80;;;;;;;;4967725;28;8886;-79
2021/08/18 10:28:16;;;;;;;;;5.00;5.00;;;;;;;;4984267;28;8892;-80
2021/08/18 10:30:53;;;;;;;;;8.60;5.20;;;;;;;;4985431;28;8820;-79
2021/08/18 10:33:58;;;;;;;;;5.40;5.40;;;;;;;;4967040;28;8886;-79
2021/08/18 10:37:01;;;;;;;;;2.60;2.60;;;;;;;;4983898;28;8887;-78
2021/08/18 10:39:30;;;;;;;;;5.00;5.00;;;;;;;;4979816;28;8869;-79
2021/08/18 10:42:00;;;;;;;;;5.00;5.00;;;;;;;;4984410;28;8893;-79
2021/08/18 10:44:38;;;;;;;;;5.00;5.00;;;;;;;;4984939;28;8993;-81
2021/08/18 10:47:13;;;;;;;;;6.20;6.20;;;;;;;;4967771;28;8873;-80
2021/08/18 10:49:40;;;;;;;;;6.40;6.40;;;;;;;;4983474;28;8869;-78
2021/08/18 10:52:08;;;;;;;;;5.00;5.00;;;;;;;;4984923;28;8897;-80
2021/08/18 10:54:48;;;;;;;;;5.00;5.00;;;;;;;;4983667;28;8900;-78
2021/08/18 10:57:39;;;;;;;;;4.40;4.40;;;;;;;;4984740;28;9027;-79
2021/08/18 11:00:14;;;;;;;;;6.20;4.80;;;;;;;;4974347;28;8889;-79
2021/08/18 11:03:06;;;;;;;;;9.00;7.80;;;;;;;;4983986;28;8868;-78
2021/08/18 11:05:48;;;;;;;;;5.00;5.00;;;;;;;;4974758;28;8881;-79
2021/08/18 11:08:17;;;;;;;;;5.80;5.80;;;;;;;;4984658;28;8885;-78
2021/08/18 11:11:26;;;;;;;;;6.80;6.80;;;;;;;;4984365;28;8883;-79
2021/08/18 11:14:08;;;;;;;;;9.60;7.80;;;;;;;;4984686;28;8865;-79
2021/08/18 11:16:36;;;;;;;;;4.80;3.80;;;;;;;;4983361;28;8881;-77
2021/08/18 11:19:08;;;;;;;;;8.20;8.20;;;;;;;;4984618;28;8865;-78
2021/08/18 11:21:37;;;;;;;;;10.40;9.00;;;;;;;;4984520;28;8890;-79
2021/08/18 11:24:06;;;;;;;;;7.00;7.00;;;;;;;;4983829;28;8895;-79
2021/08/18 11:26:35;;;;;;;;;7.00;7.00;;;;;;;;4984807;28;8893;-80
2021/08/18 11:29:07;;;;;;;;;5.40;5.40;;;;;;;;4983555;28;9008;-81
2021/08/18 11:31:40;;;;;;;;;8.00;6.00;;;;;;;;4981458;28;8817;-82
2021/08/18 11:34:20;;;;;;;;;7.40;7.00;;;;;;;;4985033;28;8904;-81
2021/08/18 11:36:47;;;;;;;;;8.00;8.00;;;;;;;;4991875;28;8845;-81
2021/08/18 11:39:14;;;;;;;;;7.60;7.60;;;;;;;;4989009;28;8880;-86
2021/08/18 11:41:43;;;;;;;;;8.00;8.00;;;;;;;;4962426;28;8850;-84
2021/08/18 11:44:27;;;;;;;;;6.20;6.20;;;;;;;;4984518;28;8897;-82
2021/08/18 11:46:56;;;;;;;;;6.60;6.60;;;;;;;;4983929;28;8877;-88
2021/08/18 11:49:25;;;;;;;;;8.20;8.20;;;;;;;;4971368;28;9648;-91
2021/08/18 11:51:53;;;;;;;;;8.20;8.20;;;;;;;;4983204;28;8877;-85
2021/08/18 11:54:23;;;;;;;;;11.00;8.00;;;;;;;;4983978;28;8870;-76
2021/08/18 11:57:02;;;;;;;;;8.00;8.00;;;;;;;;4985428;28;8901;-76
2021/08/18 11:59:31;;;;;;;;;10.00;10.00;;;;;;;;4988397;28;8895;-76
2021/08/18 12:01:59;;;;;;;;;12.20;10.80;;;;;;;;4986783;28;8829;-78
2021/08/18 12:04:27;;;;;;;;;13.00;11.00;;;;;;;;4987241;28;9719;-84
2021/08/18 12:07:10;;;;;;;;;7.75;7.75;;;;;;;;4982964;28;8889;-79
2021/08/18 12:09:38;;;;;;;;;8.60;8.00;;;;;;;;4995259;28;8872;-79
2021/08/18 12:12:07;;;;;;;;;8.00;8.00;;;;;;;;4998270;28;8918;-76
2021/08/18 12:14:41;;;;;;;;;10.00;10.00;;;;;;;;4994656;28;8874;-77
2021/08/18 12:17:09;;;;;;;;;10.00;10.00;;;;;;;;4998157;28;8996;-80
2021/08/18 12:19:38;;;;;;;;;13.80;10.40;;;;;;;;4994256;28;8869;-90
2021/08/18 12:22:17;;;;;;;;;12.20;9.00;;;;;;;;4977462;28;8939;-78
2021/08/18 12:24:47;;;;;;;;;8.60;8.60;;;;;;;;4988691;28;8864;-80
2021/08/18 12:27:19;;;;;;;;;8.80;8.80;;;;;;;;5002215;28;8842;-74
2021/08/18 12:29:48;;;;;;;;;8.60;8.60;;;;;;;;4997994;28;8865;-76
2021/08/18 12:32:15;;;;;;;;;10.80;9.00;;;;;;;;5002252;28;9394;-73
2021/08/18 12:34:44;;;;;;;;;10.40;10.40;;;;;;;;5001689;28;8902;-79
2021/08/18 12:37:14;;;;;;;;;11.20;10.00;;;;;;;;4999132;28;8987;-78
2021/08/18 12:39:45;;;;;;;;;12.60;12.60;;;;;;;;4994338;28;8895;-80
2021/08/18 12:42:24;;;;;;;;;11.40;11.40;;;;;;;;4992488;28;8880;-80
2021/08/18 12:45:12;;;;;;;;;10.00;10.00;;;;;;;;5003267;28;9665;-78
2021/08/18 12:47:42;;;;;;;;;15.40;10.60;;;;;;;;4992486;28;8899;-74
2021/08/18 12:50:11;;;;;;;;;9.00;7.80;;;;;;;;4985391;28;8877;-74
2021/08/18 12:52:38;;;;;;;;;11.00;10.80;;;;;;;;4985465;28;8875;-76
2021/08/18 12:55:06;;;;;;;;;14.40;11.60;;;;;;;;4985174;28;10517;-76
2021/08/18 12:57:34;;;;;;;;;11.00;11.00;;;;;;;;4985149;28;8845;-75
2021/08/18 13:00:02;;;;;;;;;13.60;13.60;;;;;;;;4985163;28;8874;-76
2021/08/18 13:02:31;;;;;;;;;12.60;10.00;;;;;;;;5000731;28;8923;-77
2021/08/18 13:04:58;;;;;;;;;9.00;9.00;;;;;;;;4997707;28;9751;-75
2021/08/18 13:07:25;;;;;;;;;11.80;10.20;;;;;;;;4993459;28;8877;-75
2021/08/18 13:09:53;;;;;;;;;14.80;12.20;;;;;;;;4984014;28;9623;-75
2021/08/18 13:12:20;;;;;;;;;10.20;10.20;;;;;;;;4983873;28;8996;-74
2021/08/18 13:14:47;;;;;;;;;10.60;10.60;;;;;;;;4983244;28;8859;-79
2021/08/18 13:17:15;;;;;;;;;9.20;9.20;;;;;;;;4983972;28;8868;-76
2021/08/18 13:19:44;;;;;;;;;12.20;11.00;;;;;;;;4967367;28;8865;-76
2021/08/18 13:22:12;;;;;;;;;12.60;10.60;;;;;;;;4982693;28;8885;-73
2021/08/18 13:24:40;;;;;;;;;11.20;10.00;;;;;;;;4985256;28;8877;-75
2021/08/18 13:27:08;;;;;;;;;10.60;10.60;;;;;;;;4983608;28;8880;-74
2021/08/18 13:29:36;;;;;;;;;13.00;12.20;;;;;;;;4984091;28;8884;-76
2021/08/18 13:32:03;;;;;;;;;15.20;12.00;;;;;;;;4985271;28;8798;-74
2021/08/18 13:34:30;;;;;;;;;10.00;10.00;;;;;;;;4985924;28;8881;-76
2021/08/18 13:37:00;;;;;;;;;11.40;11.40;;;;;;;;4985435;28;8853;-76
2021/08/18 13:39:27;;;;;;;;;9.60;8.80;;;;;;;;4983335;28;8908;-74
2021/08/18 13:41:54;;;;;;;;;10.80;10.80;;;;;;;;4985953;28;9027;-74
2021/08/18 13:44:23;;;;;;;;;13.00;11.00;;;;;;;;4966851;28;8899;-74
2021/08/18 13:46:50;;;;;;;;;10.80;10.80;;;;;;;;4984915;28;9096;-73
2021/08/18 13:49:18;;;;;;;;;8.60;8.60;;;;;;;;4993160;28;8884;-72
2021/08/18 13:51:45;;;;;;;;;9.00;9.00;;;;;;;;4989587;28;8892;-75
2021/08/18 13:54:14;;;;;;;;;9.00;9.00;;;;;;;;4985022;28;8972;-74
2021/08/18 13:56:41;;;;;;;;;13.20;8.00;;;;;;;;4984077;28;8876;-75
2021/08/18 13:59:09;;;;;;;;;7.80;7.80;;;;;;;;4984120;28;8861;-74
2021/08/18 14:01:36;;;;;;;;;6.40;6.40;;;;;;;;4982247;28;8892;-75
2021/08/18 14:04:03;;;;;;;;;5.20;5.20;;;;;;;;4983904;28;8865;-77
2021/08/18 14:06:31;;;;;;;;;8.00;8.00;;;;;;;;4996794;28;8849;-76
2021/08/18 14:09:00;;;;;;;;;7.20;7.20;;;;;;;;4996337;28;9744;-77
2021/08/18 14:11:28;;;;;;;;;6.20;6.20;;;;;;;;5000264;28;8841;-79
2021/08/18 14:13:56;;;;;;;;;8.00;6.00;;;;;;;;4990370;28;8859;-74
2021/08/18 14:16:23;;;;;;;;;7.20;7.20;;;;;;;;4982804;28;8840;-72
2021/08/18 14:18:51;;;;;;;;;7.40;7.00;;;;;;;;4994405;28;8864;-73
2021/08/18 14:21:18;;;;;;;;;7.00;7.00;;;;;;;;4991558;28;8852;-75
2021/08/18 14:23:46;;;;;;;;;7.80;7.80;;;;;;;;4997263;28;8841;-73
2021/08/18 14:26:13;;;;;;;;;7.00;7.00;;;;;;;;4999031;28;9487;-77
2021/08/18 14:28:42;;;;;;;;;7.00;7.00;;;;;;;;4998244;28;8907;-72
2021/08/18 14:31:09;;;;;;;;;6.60;6.60;;;;;;;;4999747;28;8832;-78
2021/08/18 14:33:37;;;;;;;;;7.00;7.00;;;;;;;;4996708;28;8856;-76
2021/08/18 14:36:04;;;;;;;;;6.40;6.40;;;;;;;;4991714;28;8959;-73
2021/08/18 14:38:31;;;;;;;;;9.80;8.80;;;;;;;;4994144;28;8869;-75
2021/08/18 14:40:59;;;;;;;;;9.60;9.00;;;;;;;;4990805;28;8877;-77
2021/08/18 14:43:26;;;;;;;;;10.00;10.00;;;;;;;;4993379;28;8857;-72
2021/08/18 14:45:55;;;;;;;;;9.80;9.80;;;;;;;;4996895;28;8873;-74
2021/08/18 14:48:23;;;;;;;;;11.60;11.60;;;;;;;;4993925;28;8872;-73
2021/08/18 14:50:50;;;;;;;;;11.40;9.60;;;;;;;;4986004;28;8881;-76
2021/08/18 14:53:17;;;;;;;;;9.00;9.00;;;;;;;;4986322;28;8872;-77
2021/08/18 14:55:45;;;;;;;;;8.20;8.20;;;;;;;;4997947;28;8984;-76
2021/08/18 14:58:12;;;;;;;;;9.00;9.00;;;;;;;;4997173;28;8911;-76
2021/08/18 15:00:40;;;;;;;;;11.60;9.20;;;;;;;;4987485;28;8868;-80
2021/08/18 15:03:09;;;;;;;;;11.20;10.00;;;;;;;;4983052;28;8876;-81
2021/08/18 15:05:37;;;;;;;;;10.00;10.00;;;;;;;;4974248;28;8873;-80
2021/08/18 15:08:04;;;;;;;;;11.00;11.00;;;;;;;;4994974;28;8906;-81
2021/08/18 15:10:32;;;;;;;;;8.00;7.40;;;;;;;;4991755;28;10017;-81
2021/08/18 15:13:00;;;;;;;;;11.80;9.80;;;;;;;;4982360;28;8879;-82
2021/08/18 15:15:27;;;;;;;;;9.80;9.20;;;;;;;;4980801;28;9012;-77
2021/08/18 15:17:55;;;;;;;;;7.60;7.60;;;;;;;;4982623;28;8967;-81
2021/08/18 15:20:24;;;;;;;;;11.20;8.20;;;;;;;;4981231;28;8897;-76
2021/08/18 15:22:51;;;;;;;;;8.60;8.60;;;;;;;;4990267;28;8885;-78
2021/08/18 15:25:19;;;;;;;;;8.40;8.40;;;;;;;;4981972;28;8873;-77
2021/08/18 15:27:47;;;;;;;;;11.20;10.20;;;;;;;;4986426;28;8919;-77
2021/08/18 15:30:16;;;;;;;;;10.80;10.40;;;;;;;;4983412;28;8911;-76
2021/08/18 15:32:44;;;;;;;;;13.40;12.00;;;;;;;;4991761;28;8928;-78
2021/08/18 15:35:13;;;;;;;;;9.40;9.40;;;;;;;;4983011;28;8915;-77
2021/08/18 15:37:42;;;;;;;;;13.20;11.60;;;;;;;;4964706;28;8877;-78
2021/08/18 15:40:11;;;;;;;;;8.60;7.00;;;;;;;;4982180;28;9456;-82
2021/08/18 15:42:39;;;;;;;;;10.60;9.40;;;;;;;;4983699;28;9644;-81
2021/08/18 15:45:08;;;;;;;;;9.60;9.20;;;;;;;;4979678;28;8885;-84
2021/08/18 15:47:35;;;;;;;;;6.80;6.00;;;;;;;;4995474;28;8862;-78
2021/08/18 15:50:03;;;;;;;;;9.00;7.00;;;;;;;;4991184;28;8901;-81
2021/08/18 15:52:31;;;;;;;;;3.00;3.00;;;;;;;;4993355;28;8887;-82
2021/08/18 15:54:59;;;;;;;;;6.60;6.60;;;;;;;;4977739;28;8870;-82
2021/08/18 15:57:27;;;;;;;;;7.60;7.60;;;;;;;;4995322;28;8992;-78
2021/08/18 15:59:54;;;;;;;;;9.40;7.40;;;;;;;;5000810;28;8852;-79
2021/08/18 16:02:23;;;;;;;;;6.60;6.60;;;;;;;;4996555;28;8962;-82
2021/08/18 16:04:50;;;;;;;;;6.60;6.60;;;;;;;;4988791;28;8936;-85
2021/08/18 16:07:17;;;;;;;;;9.60;7.80;;;;;;;;4955915;28;8869;-85
2021/08/18 16:09:45;;;;;;;;;8.00;8.00;;;;;;;;4993339;28;10011;-85
2021/08/18 16:12:13;;;;;;;;;3.40;3.40;;;;;;;;4969446;28;8921;-84
2021/08/18 16:14:41;;;;;;;;;8.20;8.20;;;;;;;;4988184;28;8899;-84
2021/08/18 16:17:08;;;;;;;;;6.80;6.80;;;;;;;;4970250;28;8918;-85
2021/08/18 16:19:35;;;;;;;;;10.00;8.00;;;;;;;;4988479;28;8893;-87
2021/08/18 16:22:03;;;;;;;;;9.40;7.20;;;;;;;;4987753;28;8857;-85
2021/08/18 16:24:31;;;;;;;;;6.80;6.80;;;;;;;;4987941;28;8880;-85
2021/08/18 16:26:58;;;;;;;;;7.40;6.20;;;;;;;;4970276;28;8880;-84
2021/08/18 16:29:27;;;;;;;;;10.60;8.20;;;;;;;;4987333;28;8883;-85
2021/08/18 16:31:54;;;;;;;;;6.80;6.80;;;;;;;;4988007;28;8821;-83
2021/08/18 16:34:22;;;;;;;;;10.40;7.40;;;;;;;;4987339;28;8908;-85
2021/08/18 16:36:50;;;;;;;;;8.40;8.00;;;;;;;;4970897;28;8871;-86
2021/08/18 16:39:18;;;;;;;;;8.80;8.80;;;;;;;;4987135;28;8871;-85
2021/08/18 16:41:45;;;;;;;;;7.20;7.20;;;;;;;;4973686;28;8889;-86
2021/08/18 16:44:12;;;;;;;;;11.80;10.80;;;;;;;;4988052;28;8911;-80
2021/08/18 16:46:41;;;;;;;;;10.60;9.20;;;;;;;;4969037;28;8872;-81
2021/08/18 16:49:09;;;;;;;;;10.00;10.00;;;;;;;;4987451;28;8898;-82
2021/08/18 16:51:37;;;;;;;;;10.80;10.80;;;;;;;;4985252;28;8947;-78
2021/08/18 16:54:04;;;;;;;;;11.80;11.80;;;;;;;;4987040;28;8935;-82
2021/08/18 16:56:31;;;;;;;;;14.20;12.80;;;;;;;;4985964;28;8896;-83
2021/08/18 16:59:00;;;;;;;;;16.40;15.40;;;;;;;;4986870;28;8904;-85
2021/08/18 17:01:27;;;;;;;;;12.80;11.20;;;;;;;;4987016;28;8818;-87
2021/08/18 17:03:56;;;;;;;;;17.00;17.00;;;;;;;;4986446;28;8893;-86
2021/08/18 17:06:23;;;;;;;;;18.00;18.00;;;;;;;;4988113;28;8853;-88